Main page
METAR-TAF:

METAR-TAF

Airports :

Southampton Airport

Southampton, England

latitude: 50-54N, longitude: 001-24W, elevation: 9 m

Current weather observation

The report was made 7 hours and 36 minutes ago, at 19:50 UTC
Wind 7 kt from the North, varying between Northwest and North/Northeast
Temperature 14°C
Humidity 88%
Pressure 1014 hPa
Visibility 10 km or more
Broken clouds at a height of 1500 ft

METAR: EGHI 181950Z 35007KT 310V020 9999 BKN015 14/12 Q1014

Time: 04:26 (03:26 UTC)

Forecast

The report was made 10 hours and 25 minutes ago, at 17:01 UTC
Forecast valid from 18 at 18 UTC to 18 at 22 UTC
Wind 10 kt from the North
Visibility 10 km or more
Broken clouds at a height of 1600 ft
Temporary
from 18 at 18 UTC to 18 at 22 UTC
Broken clouds at a height of 1000 ft
Probability 30% :
Temporary
from 18 at 18 UTC to 18 at 19 UTC
Visibility: 8000 m
Broken clouds at a height of 800 ft
light rain

TAF: EGHI 181701Z 1818/1822 35010KT 9999 BKN016 TEMPO 1818/1822 BKN010 PROB30 TEMPO 1818/1819 8000 -RA BKN008

Weather observations and forecasts of more than 4000 airports (METAR and TAF reports).

The available stations are represented by yellow and red dots on the map.

Hover mouse over dot to see the name of the station.

Then click to see weather observations and forecasts.

To change the map : click on the green buttons with a black cross to zoom in, on the green button with a dash to zoom out, or on the green arrows for adjacent maps.


METAR-TAF: